Time;durP1;ratioP1;P1;durP2;ratioP2;P2;SDS_P1;SDS_P2;PMS_P1;PMS_P2;Temp;Humidity;BMP_temperature;BMP_pressure;BME280_temperature;BME280_humidity;BME280_pressure;Samples;Min_cycle;Max_cycle;Signal;HPM_P1;HPM_P2
2022/01/08 00:00:16;;;;;;;12.35;11.25;;;;;;;;;;5021879;28;20044;-71
2022/01/08 00:02:43;;;;;;;11.70;10.80;;;;;;;;;;5024105;28;20037;-70
2022/01/08 00:05:10;;;;;;;12.38;11.43;;;;;;;;;;5024920;28;20540;-70
2022/01/08 00:07:35;;;;;;;11.50;10.45;;;;;;;;;;5021224;28;20112;-70
2022/01/08 00:10:02;;;;;;;12.98;11.88;;;;;;;;;;5028958;28;20105;-71
2022/01/08 00:12:28;;;;;;;13.93;12.63;;;;;;;;;;5028244;28;20060;-70
2022/01/08 00:14:54;;;;;;;14.43;13.02;;;;;;;;;;5022482;28;20638;-69
2022/01/08 00:17:22;;;;;;;11.55;10.73;;;;;;;;;;5020986;28;20034;-68
2022/01/08 00:19:51;;;;;;;13.18;12.23;;;;;;;;;;5024937;28;20500;-71
2022/01/08 00:22:17;;;;;;;12.32;11.27;;;;;;;;;;5021734;28;20071;-68
2022/01/08 00:24:43;;;;;;;12.20;11.30;;;;;;;;;;5021343;28;20034;-70
2022/01/08 00:27:08;;;;;;;11.10;10.40;;;;;;;;;;5023310;28;20112;-70
2022/01/08 00:29:34;;;;;;;13.27;12.07;;;;;;;;;;5028345;28;20033;-71
2022/01/08 00:32:00;;;;;;;13.05;11.77;;;;;;;;;;5028326;28;20585;-70
2022/01/08 00:34:25;;;;;;;12.65;11.45;;;;;;;;;;5021138;28;20485;-70
2022/01/08 00:36:51;;;;;;;12.25;11.15;;;;;;;;;;5019798;28;20057;-70
2022/01/08 00:39:17;;;;;;;10.95;10.15;;;;;;;;;;5025819;28;20628;-70
2022/01/08 00:41:42;;;;;;;11.75;10.85;;;;;;;;;;5028500;28;20503;-70
2022/01/08 00:44:08;;;;;;;11.65;10.60;;;;;;;;;;5026332;28;20040;-70
2022/01/08 00:46:34;;;;;;;11.25;10.18;;;;;;;;;;5025899;28;20033;-69
2022/01/08 00:49:01;;;;;;;11.13;10.07;;;;;;;;;;5028159;28;20112;-70
2022/01/08 00:51:27;;;;;;;10.93;10.10;;;;;;;;;;5016510;28;20034;-70
2022/01/08 00:53:53;;;;;;;10.90;10.07;;;;;;;;;;5022150;28;20045;-70
2022/01/08 00:56:18;;;;;;;12.25;10.70;;;;;;;;;;5028535;28;20440;-70
2022/01/08 00:58:44;;;;;;;11.35;10.45;;;;;;;;;;5028608;28;20068;-70
2022/01/08 01:01:09;;;;;;;11.18;10.38;;;;;;;;;;5022191;28;20599;-70
2022/01/08 01:03:35;;;;;;;12.73;11.50;;;;;;;;;;5027002;28;20112;-70
2022/01/08 01:06:01;;;;;;;11.82;11.00;;;;;;;;;;5027405;28;20045;-70
2022/01/08 01:08:27;;;;;;;10.55;9.85;;;;;;;;;;5028540;28;20040;-70
2022/01/08 01:10:52;;;;;;;11.65;10.63;;;;;;;;;;5019250;28;20033;-69
2022/01/08 01:13:18;;;;;;;11.38;10.60;;;;;;;;;;5028288;28;20038;-69
2022/01/08 01:15:44;;;;;;;11.65;10.73;;;;;;;;;;5028449;28;20513;-70
2022/01/08 01:18:09;;;;;;;11.48;10.68;;;;;;;;;;5028503;28;20123;-70
2022/01/08 01:20:35;;;;;;;11.98;10.85;;;;;;;;;;5019555;28;20037;-69
2022/01/08 01:23:18;;;;;;;11.70;10.80;;;;;;;;;;5025974;28;20167;-70
2022/01/08 01:25:51;;;;;;;10.23;9.63;;;;;;;;;;5023710;28;20052;-70
2022/01/08 01:47:05;;;;;;;10.73;9.73;;;;;;;;;;5026975;28;20064;-70
2022/01/08 01:49:32;;;;;;;10.90;10.10;;;;;;;;;;5020208;28;20033;-70
2022/01/08 01:51:59;;;;;;;9.70;9.10;;;;;;;;;;5022092;28;20037;-69
2022/01/08 01:54:30;;;;;;;10.48;9.68;;;;;;;;;;5026405;28;20546;-69
2022/01/08 01:56:57;;;;;;;11.13;10.32;;;;;;;;;;5021800;28;20042;-69
2022/01/08 01:59:27;;;;;;;10.98;10.23;;;;;;;;;;5024502;28;20094;-70
2022/01/08 02:01:53;;;;;;;9.90;9.30;;;;;;;;;;5031909;28;20037;-70
2022/01/08 02:04:19;;;;;;;9.25;8.75;;;;;;;;;;5033372;28;20121;-70
2022/01/08 02:06:45;;;;;;;10.25;9.55;;;;;;;;;;5026705;28;20060;-69
2022/01/08 02:09:10;;;;;;;10.10;9.40;;;;;;;;;;5033154;28;20033;-70
2022/01/08 02:12:01;;;;;;;10.02;9.25;;;;;;;;;;5033834;28;20107;-70
2022/01/08 02:14:29;;;;;;;10.38;9.57;;;;;;;;;;5031801;28;20064;-69
2022/01/08 02:16:55;;;;;;;11.32;9.23;;;;;;;;;;5027506;28;20060;-70
2022/01/08 02:19:21;;;;;;;9.93;9.20;;;;;;;;;;5033618;28;20073;-70
2022/01/08 02:21:52;;;;;;;9.65;9.05;;;;;;;;;;5031742;28;20029;-70
2022/01/08 02:24:18;;;;;;;10.40;9.70;;;;;;;;;;5030102;28;20041;-70
2022/01/08 02:26:44;;;;;;;9.98;9.38;;;;;;;;;;5028763;28;20041;-69
2022/01/08 02:29:16;;;;;;;10.73;9.80;;;;;;;;;;5034075;28;20029;-70
2022/01/08 02:32:06;;;;;;;10.07;9.30;;;;;;;;;;5033398;28;20044;-70
2022/01/08 02:34:33;;;;;;;9.85;9.15;;;;;;;;;;5027488;28;20033;-69
2022/01/08 02:37:00;;;;;;;9.95;9.25;;;;;;;;;;5030003;28;20033;-70
2022/01/08 02:39:26;;;;;;;9.73;9.02;;;;;;;;;;5033432;28;20094;-69
2022/01/08 02:41:58;;;;;;;10.20;9.40;;;;;;;;;;5027970;28;20549;-70
2022/01/08 02:44:26;;;;;;;9.55;8.95;;;;;;;;;;5030339;28;20041;-70
2022/01/08 02:46:52;;;;;;;9.40;8.88;;;;;;;;;;5027118;28;20123;-69
2022/01/08 02:49:18;;;;;;;10.55;9.65;;;;;;;;;;5032154;28;20296;-70
2022/01/08 02:51:44;;;;;;;9.82;9.05;;;;;;;;;;5023141;28;20546;-70
2022/01/08 02:54:11;;;;;;;9.82;9.13;;;;;;;;;;5031423;28;20033;-69
2022/01/08 02:56:38;;;;;;;10.15;9.23;;;;;;;;;;5033532;28;20096;-69
2022/01/08 02:59:04;;;;;;;9.98;9.30;;;;;;;;;;5032707;28;20133;-69
2022/01/08 03:01:30;;;;;;;9.95;9.25;;;;;;;;;;5024732;28;20258;-71
2022/01/08 03:03:57;;;;;;;10.32;9.63;;;;;;;;;;5031886;28;20033;-69
2022/01/08 03:06:23;;;;;;;10.40;9.70;;;;;;;;;;5033620;28;20443;-69
2022/01/08 03:08:49;;;;;;;10.95;10.05;;;;;;;;;;5026173;28;20068;-70
2022/01/08 03:11:14;;;;;;;10.75;9.75;;;;;;;;;;5026244;28;20101;-69
2022/01/08 03:13:40;;;;;;;10.90;9.80;;;;;;;;;;5029898;28;20025;-69
2022/01/08 03:16:06;;;;;;;11.25;10.45;;;;;;;;;;5017559;28;20489;-71
2022/01/08 03:18:34;;;;;;;11.15;10.13;;;;;;;;;;5017412;28;20080;-72
2022/01/08 03:21:02;;;;;;;10.48;9.55;;;;;;;;;;5025430;28;20041;-68
2022/01/08 03:23:39;;;;;;;11.30;10.40;;;;;;;;;;5033693;28;20068;-68
2022/01/08 03:26:05;;;;;;;10.77;9.98;;;;;;;;;;5031705;28;20476;-69
2022/01/08 03:28:30;;;;;;;10.93;10.02;;;;;;;;;;5034471;28;20037;-69
2022/01/08 03:30:56;;;;;;;11.40;10.48;;;;;;;;;;5036069;28;20097;-69
2022/01/08 03:33:22;;;;;;;10.13;9.43;;;;;;;;;;5037588;28;20044;-70
2022/01/08 03:35:47;;;;;;;10.55;9.75;;;;;;;;;;5024936;28;20125;-70
2022/01/08 03:38:13;;;;;;;10.57;9.73;;;;;;;;;;5024122;28;20041;-71
2022/01/08 03:40:39;;;;;;;10.50;9.60;;;;;;;;;;5029435;28;20041;-69
2022/01/08 03:43:04;;;;;;;10.07;9.45;;;;;;;;;;5022196;28;20033;-68
2022/01/08 03:45:30;;;;;;;10.45;9.73;;;;;;;;;;5025764;28;20119;-71
2022/01/08 03:50:30;;;;;;;10.13;9.43;;;;;;;;;;5022404;28;20573;-70
2022/01/08 03:52:55;;;;;;;9.65;9.05;;;;;;;;;;5020987;28;20124;-70
2022/01/08 03:55:22;;;;;;;10.30;9.50;;;;;;;;;;5029712;28;20144;-70
2022/01/08 03:57:47;;;;;;;10.52;9.75;;;;;;;;;;5029720;28;20048;-71
2022/01/08 04:00:14;;;;;;;10.10;9.50;;;;;;;;;;5027175;28;20384;-70
2022/01/08 04:02:40;;;;;;;9.88;9.27;;;;;;;;;;5022877;28;20360;-70
2022/01/08 04:05:06;;;;;;;9.93;9.23;;;;;;;;;;5021025;28;20042;-70
2022/01/08 04:07:31;;;;;;;10.23;9.43;;;;;;;;;;5026204;28;20393;-70
2022/01/08 04:09:57;;;;;;;10.38;9.57;;;;;;;;;;5022809;28;20060;-70
2022/01/08 04:12:33;;;;;;;9.52;8.93;;;;;;;;;;5027258;28;20392;-70
2022/01/08 04:15:07;;;;;;;9.52;8.93;;;;;;;;;;5029763;28;20037;-70
2022/01/08 04:17:33;;;;;;;9.63;9.13;;;;;;;;;;5022937;28;20061;-71
2022/01/08 04:19:59;;;;;;;9.90;9.10;;;;;;;;;;5017774;28;20072;-71
2022/01/08 04:22:25;;;;;;;9.85;9.25;;;;;;;;;;5025908;28;20084;-71
2022/01/08 04:24:51;;;;;;;9.93;9.30;;;;;;;;;;5025807;28;20049;-71
2022/01/08 04:27:17;;;;;;;9.80;9.20;;;;;;;;;;5024052;28;20030;-71
2022/01/08 04:29:42;;;;;;;9.68;9.07;;;;;;;;;;5029088;28;20033;-71
2022/01/08 04:32:08;;;;;;;9.52;8.95;;;;;;;;;;5029031;28;20484;-70
2022/01/08 04:34:34;;;;;;;9.40;8.90;;;;;;;;;;5024941;28;20030;-70
2022/01/08 04:37:00;;;;;;;9.60;9.00;;;;;;;;;;5022376;28;20135;-71
2022/01/08 04:39:27;;;;;;;9.68;8.98;;;;;;;;;;5029163;28;20449;-70
2022/01/08 04:41:53;;;;;;;9.30;8.75;;;;;;;;;;5028828;28;20317;-70
2022/01/08 04:44:19;;;;;;;9.70;8.95;;;;;;;;;;5023893;28;20435;-70
2022/01/08 04:46:45;;;;;;;9.32;8.80;;;;;;;;;;5020939;28;20041;-70
2022/01/08 04:49:10;;;;;;;9.00;8.50;;;;;;;;;;5028735;28;20038;-70
2022/01/08 04:51:36;;;;;;;9.45;8.85;;;;;;;;;;5019756;28;20319;-70
2022/01/08 04:54:02;;;;;;;9.25;8.75;;;;;;;;;;5022044;28;20059;-69
2022/01/08 04:56:28;;;;;;;9.43;8.82;;;;;;;;;;5018249;28;20033;-69
2022/01/08 04:58:53;;;;;;;9.43;8.90;;;;;;;;;;5028357;28;20037;-70
2022/01/08 05:01:19;;;;;;;9.60;9.00;;;;;;;;;;5025796;28;20471;-70
2022/01/08 05:03:44;;;;;;;9.05;8.52;;;;;;;;;;5022613;28;20113;-70
2022/01/08 05:06:10;;;;;;;9.43;8.70;;;;;;;;;;5026078;28;20401;-69
2022/01/08 05:08:36;;;;;;;8.35;7.90;;;;;;;;;;5028265;28;20489;-69
2022/01/08 05:11:02;;;;;;;9.10;8.50;;;;;;;;;;5018766;28;20036;-70
2022/01/08 05:13:27;;;;;;;9.05;8.55;;;;;;;;;;5027804;28;20029;-69
2022/01/08 05:15:53;;;;;;;9.50;8.80;;;;;;;;;;5020979;28;20029;-69
2022/01/08 05:18:19;;;;;;;9.50;8.90;;;;;;;;;;5010823;28;20037;-69
2022/01/08 05:20:54;;;;;;;9.60;9.00;;;;;;;;;;5013005;28;20037;-69
2022/01/08 05:23:19;;;;;;;9.90;9.30;;;;;;;;;;5011392;28;20563;-69
2022/01/08 05:25:45;;;;;;;10.43;9.73;;;;;;;;;;5017770;28;20045;-69
2022/01/08 05:28:10;;;;;;;9.73;9.13;;;;;;;;;;5018255;28;20519;-68
2022/01/08 05:30:36;;;;;;;10.68;9.93;;;;;;;;;;5018098;28;20087;-68
2022/01/08 05:33:02;;;;;;;9.85;9.25;;;;;;;;;;5017754;28;20033;-69
2022/01/08 05:35:28;;;;;;;9.88;9.27;;;;;;;;;;5027279;28;20142;-68
2022/01/08 05:37:55;;;;;;;10.68;9.88;;;;;;;;;;5027900;28;20068;-68
2022/01/08 05:40:21;;;;;;;11.00;10.10;;;;;;;;;;5023675;28;20496;-68
2022/01/08 05:42:47;;;;;;;11.75;10.82;;;;;;;;;;5022768;28;20034;-68
2022/01/08 05:45:13;;;;;;;11.77;10.98;;;;;;;;;;5021121;28;20454;-68
2022/01/08 05:47:38;;;;;;;11.30;10.40;;;;;;;;;;5027956;28;20396;-68
2022/01/08 05:50:06;;;;;;;11.90;11.00;;;;;;;;;;5025337;28;20064;-67
2022/01/08 05:52:32;;;;;;;11.75;10.95;;;;;;;;;;5018239;28;20477;-67
2022/01/08 05:54:57;;;;;;;11.50;10.65;;;;;;;;;;5027854;28;20034;-68
2022/01/08 05:57:23;;;;;;;11.82;10.88;;;;;;;;;;5024683;28;20444;-67
2022/01/08 05:59:49;;;;;;;12.30;11.40;;;;;;;;;;5025575;28;20041;-67
2022/01/08 06:02:15;;;;;;;11.38;10.60;;;;;;;;;;5027580;28;20409;-69
2022/01/08 06:04:40;;;;;;;12.15;11.35;;;;;;;;;;5027532;28;20061;-68
2022/01/08 06:07:06;;;;;;;12.60;11.70;;;;;;;;;;5024942;28;20072;-69
2022/01/08 06:09:31;;;;;;;14.05;12.95;;;;;;;;;;5025654;28;20037;-69
2022/01/08 06:11:57;;;;;;;14.07;12.88;;;;;;;;;;5027366;28;20079;-67
2022/01/08 06:14:23;;;;;;;14.38;13.23;;;;;;;;;;5027770;28;20068;-69
2022/01/08 06:16:49;;;;;;;11.40;10.70;;;;;;;;;;5021783;28;20120;-69
2022/01/08 06:19:16;;;;;;;11.70;10.90;;;;;;;;;;5027162;28;20483;-69
2022/01/08 06:21:41;;;;;;;10.68;9.98;;;;;;;;;;5024283;28;20059;-68
2022/01/08 06:24:07;;;;;;;9.68;9.18;;;;;;;;;;5022242;28;20455;-69
2022/01/08 06:26:34;;;;;;;9.52;9.02;;;;;;;;;;5024100;28;20064;-68
2022/01/08 06:28:59;;;;;;;9.90;9.30;;;;;;;;;;5027227;28;20401;-69
2022/01/08 06:31:26;;;;;;;9.88;9.27;;;;;;;;;;5027242;28;20041;-69
2022/01/08 06:33:52;;;;;;;9.80;9.20;;;;;;;;;;5022795;28;20084;-69
2022/01/08 06:36:19;;;;;;;9.63;9.13;;;;;;;;;;5025588;28;20404;-69
2022/01/08 06:38:47;;;;;;;9.95;9.35;;;;;;;;;;5027043;28;20104;-69
2022/01/08 06:41:13;;;;;;;9.75;9.15;;;;;;;;;;5026036;28;20948;-70
2022/01/08 06:43:39;;;;;;;9.65;9.15;;;;;;;;;;5019797;28;20943;-68
2022/01/08 06:46:05;;;;;;;10.05;9.35;;;;;;;;;;5027206;28;20041;-70
2022/01/08 06:48:30;;;;;;;9.68;9.13;;;;;;;;;;5022117;28;20041;-70
2022/01/08 06:50:56;;;;;;;9.70;9.10;;;;;;;;;;5020609;28;20038;-70
2022/01/08 06:53:22;;;;;;;9.90;9.30;;;;;;;;;;5026409;28;20088;-70
2022/01/08 06:55:47;;;;;;;10.18;9.57;;;;;;;;;;5030672;28;20389;-69
2022/01/08 06:58:14;;;;;;;10.43;9.82;;;;;;;;;;5029505;28;20029;-69
2022/01/08 07:00:40;;;;;;;10.10;9.60;;;;;;;;;;5026243;28;20049;-66
2022/01/08 07:03:09;;;;;;;9.95;9.35;;;;;;;;;;5028848;28;20037;-66
2022/01/08 07:05:36;;;;;;;10.80;10.10;;;;;;;;;;5030540;28;20551;-66
2022/01/08 07:08:02;;;;;;;10.05;9.35;;;;;;;;;;5026576;28;20170;-66
2022/01/08 07:10:28;;;;;;;10.20;9.60;;;;;;;;;;5024682;28;20397;-66
2022/01/08 07:12:54;;;;;;;9.77;9.18;;;;;;;;;;5030681;28;20041;-66
2022/01/08 07:15:19;;;;;;;10.10;9.43;;;;;;;;;;5031283;28;20132;-67
2022/01/08 07:17:46;;;;;;;10.43;9.80;;;;;;;;;;5026321;28;20033;-67
2022/01/08 07:20:13;;;;;;;9.98;9.30;;;;;;;;;;5023482;28;20484;-67
2022/01/08 07:22:39;;;;;;;10.65;10.00;;;;;;;;;;5018730;28;20124;-67
2022/01/08 07:25:05;;;;;;;11.07;10.32;;;;;;;;;;5028790;28;20183;-66
2022/01/08 07:27:32;;;;;;;10.45;9.75;;;;;;;;;;5026058;28;20042;-65
2022/01/08 07:30:09;;;;;;;10.85;10.10;;;;;;;;;;5026144;28;20037;-66
2022/01/08 07:32:45;;;;;;;10.50;9.90;;;;;;;;;;5030010;28;20048;-65
2022/01/08 07:35:14;;;;;;;10.90;10.18;;;;;;;;;;5029321;28;20033;-65
2022/01/08 07:37:40;;;;;;;10.73;10.03;;;;;;;;;;5027161;28;20096;-67
2022/01/08 07:40:25;;;;;;;11.00;10.30;;;;;;;;;;5023004;28;20037;-67
2022/01/08 07:42:51;;;;;;;12.02;11.02;;;;;;;;;;5021211;28;20610;-68
2022/01/08 07:45:18;;;;;;;11.60;10.68;;;;;;;;;;5030097;28;20033;-65
2022/01/08 07:47:44;;;;;;;12.52;11.63;;;;;;;;;;5028731;28;20036;-67
2022/01/08 07:50:10;;;;;;;11.40;10.60;;;;;;;;;;5024618;28;20052;-67
2022/01/08 07:52:36;;;;;;;11.02;10.25;;;;;;;;;;5021072;28;20401;-67
2022/01/08 07:55:02;;;;;;;11.00;10.30;;;;;;;;;;5029513;28;20037;-66
2022/01/08 07:57:28;;;;;;;11.18;10.25;;;;;;;;;;5025705;28;20037;-67
2022/01/08 07:59:53;;;;;;;11.70;10.90;;;;;;;;;;5028385;28;20440;-66
2022/01/08 08:02:20;;;;;;;11.85;10.90;;;;;;;;;;5030115;28;20033;-66
2022/01/08 08:04:45;;;;;;;10.38;9.70;;;;;;;;;;5025902;28;20041;-67
2022/01/08 08:07:11;;;;;;;11.18;10.20;;;;;;;;;;5025853;28;20029;-66
2022/01/08 08:09:37;;;;;;;10.55;9.85;;;;;;;;;;5030064;28;20037;-67
2022/01/08 08:12:04;;;;;;;11.40;10.50;;;;;;;;;;5029545;28;20112;-67
2022/01/08 08:14:31;;;;;;;11.40;10.50;;;;;;;;;;5019602;28;20292;-67
2022/01/08 08:16:56;;;;;;;11.65;10.85;;;;;;;;;;5022914;28;21353;-67
2022/01/08 08:19:22;;;;;;;12.07;11.18;;;;;;;;;;5023282;28;20069;-67
2022/01/08 08:21:47;;;;;;;12.05;11.07;;;;;;;;;;5016040;28;20508;-67
2022/01/08 08:24:14;;;;;;;13.52;12.30;;;;;;;;;;5018406;28;20501;-67
2022/01/08 08:26:40;;;;;;;12.85;11.82;;;;;;;;;;5025463;28;20034;-67
2022/01/08 08:29:06;;;;;;;17.00;15.32;;;;;;;;;;5028430;28;20025;-67
2022/01/08 08:31:31;;;;;;;14.43;12.90;;;;;;;;;;5025313;28;20041;-67
2022/01/08 08:33:57;;;;;;;13.38;12.27;;;;;;;;;;5021172;28;20492;-66
2022/01/08 08:36:23;;;;;;;13.52;12.32;;;;;;;;;;5029704;28;20117;-67
2022/01/08 08:38:48;;;;;;;12.43;11.55;;;;;;;;;;5027144;28;20264;-67
2022/01/08 08:41:14;;;;;;;13.68;12.38;;;;;;;;;;5026082;28;20550;-67
2022/01/08 08:43:40;;;;;;;13.57;12.43;;;;;;;;;;5024864;28;20033;-67
2022/01/08 08:46:05;;;;;;;11.15;10.35;;;;;;;;;;5028721;28;20045;-67
2022/01/08 08:48:33;;;;;;;11.55;10.65;;;;;;;;;;5023447;28;20486;-67
2022/01/08 08:51:03;;;;;;;11.48;10.60;;;;;;;;;;5019302;28;20041;-67
2022/01/08 08:53:29;;;;;;;12.05;10.82;;;;;;;;;;5015242;28;20113;-78
2022/01/08 08:55:55;;;;;;;16.48;13.85;;;;;;;;;;4993722;28;20144;-77
2022/01/08 08:58:20;;;;;;;13.88;12.77;;;;;;;;;;5009029;28;20064;-77
2022/01/08 09:00:46;;;;;;;12.73;11.50;;;;;;;;;;5010142;28;20076;-77
2022/01/08 09:03:12;;;;;;;11.18;10.27;;;;;;;;;;5006947;28;20105;-78
2022/01/08 09:05:38;;;;;;;12.85;11.65;;;;;;;;;;5011322;28;20500;-77
2022/01/08 09:08:04;;;;;;;12.75;11.85;;;;;;;;;;5009813;28;20034;-77
2022/01/08 09:10:31;;;;;;;12.48;11.57;;;;;;;;;;5009319;28;20034;-78
2022/01/08 09:12:57;;;;;;;13.15;12.07;;;;;;;;;;5016149;28;20029;-77
2022/01/08 09:15:25;;;;;;;12.55;11.45;;;;;;;;;;5009361;28;20123;-78
2022/01/08 09:17:59;;;;;;;13.13;11.75;;;;;;;;;;5010068;28;20037;-78
2022/01/08 09:20:26;;;;;;;13.05;11.77;;;;;;;;;;5009739;28;20049;-77
2022/01/08 09:22:52;;;;;;;12.43;11.40;;;;;;;;;;5012971;28;20040;-77
2022/01/08 09:25:18;;;;;;;12.65;11.60;;;;;;;;;;5008368;28;20125;-77
2022/01/08 09:27:44;;;;;;;11.20;10.50;;;;;;;;;;5009435;28;20041;-78
2022/01/08 09:30:10;;;;;;;12.65;11.75;;;;;;;;;;5004868;28;20539;-78
2022/01/08 09:32:35;;;;;;;12.82;11.75;;;;;;;;;;5013507;28;20042;-76
2022/01/08 09:35:01;;;;;;;11.65;10.85;;;;;;;;;;5010793;28;20645;-78
2022/01/08 09:37:27;;;;;;;12.45;11.40;;;;;;;;;;5008816;28;20125;-78
2022/01/08 09:39:53;;;;;;;12.00;11.00;;;;;;;;;;5008510;28;20054;-78
2022/01/08 09:42:19;;;;;;;11.73;10.80;;;;;;;;;;5010632;28;20538;-77
2022/01/08 09:44:45;;;;;;;12.02;11.05;;;;;;;;;;5009325;28;20104;-78
2022/01/08 09:47:12;;;;;;;12.05;11.02;;;;;;;;;;5015157;28;20492;-78
2022/01/08 09:49:38;;;;;;;11.77;10.80;;;;;;;;;;5009857;28;20108;-79
2022/01/08 09:52:05;;;;;;;11.13;10.32;;;;;;;;;;5004445;28;20781;-78
2022/01/08 09:54:32;;;;;;;12.30;11.30;;;;;;;;;;4995370;28;20036;-79
2022/01/08 09:56:57;;;;;;;11.50;10.70;;;;;;;;;;5000020;28;20041;-78
2022/01/08 09:59:24;;;;;;;11.75;10.80;;;;;;;;;;5011513;28;20743;-78
2022/01/08 10:01:59;;;;;;;11.52;10.50;;;;;;;;;;5011163;28;20055;-79
2022/01/08 10:04:26;;;;;;;11.52;10.63;;;;;;;;;;4999110;28;20044;-79
2022/01/08 10:07:22;;;;;;;11.43;10.63;;;;;;;;;;5011717;28;20037;-78
2022/01/08 10:10:03;;;;;;;12.70;11.57;;;;;;;;;;4997774;28;20045;-79
2022/01/08 10:12:46;;;;;;;12.30;11.30;;;;;;;;;;5014606;28;20069;-78
2022/01/08 10:17:59;;;;;;;12.77;11.57;;;;;;;;;;4994932;28;20096;-79
2022/01/08 10:20:30;;;;;;;13.20;12.10;;;;;;;;;;5010765;28;20121;-78
2022/01/08 10:23:11;;;;;;;12.57;11.50;;;;;;;;;;5018334;28;20085;-79
2022/01/08 10:25:40;;;;;;;12.15;11.25;;;;;;;;;;5017394;28;20543;-79
2022/01/08 10:28:05;;;;;;;12.07;10.93;;;;;;;;;;5024847;28;20532;-79
2022/01/08 10:30:31;;;;;;;12.55;11.45;;;;;;;;;;5017420;28;20038;-79
2022/01/08 10:32:59;;;;;;;12.40;11.30;;;;;;;;;;5012943;28;20037;-78
2022/01/08 10:35:47;;;;;;;11.88;10.98;;;;;;;;;;5014109;28;20025;-77
2022/01/08 10:38:14;;;;;;;13.10;11.80;;;;;;;;;;5023654;28;20404;-77
2022/01/08 10:40:40;;;;;;;12.57;11.50;;;;;;;;;;4965254;28;20038;-78
2022/01/08 10:43:26;;;;;;;12.50;11.27;;;;;;;;;;5022617;28;20030;-77
2022/01/08 10:45:56;;;;;;;11.38;10.45;;;;;;;;;;5015227;28;20037;-78
2022/01/08 10:48:27;;;;;;;11.20;10.50;;;;;;;;;;5016200;28;20465;-77
2022/01/08 10:50:53;;;;;;;12.43;11.40;;;;;;;;;;5013984;28;20034;-78
2022/01/08 10:53:19;;;;;;;11.75;10.95;;;;;;;;;;5016452;28;20057;-78
2022/01/08 10:55:46;;;;;;;12.20;11.20;;;;;;;;;;5015348;28;20033;-79
2022/01/08 10:58:11;;;;;;;12.15;11.05;;;;;;;;;;5017141;28;20041;-81
2022/01/08 11:00:37;;;;;;;12.60;11.40;;;;;;;;;;5001483;28;20037;-79
2022/01/08 11:03:02;;;;;;;12.60;11.60;;;;;;;;;;5013645;28;20448;-76
2022/01/08 11:05:28;;;;;;;13.50;11.20;;;;;;;;;;4996692;28;20041;-75
2022/01/08 11:08:12;;;;;;;12.70;11.52;;;;;;;;;;5014723;28;20528;-78
2022/01/08 11:10:38;;;;;;;12.45;11.32;;;;;;;;;;5019217;28;20129;-78
2022/01/08 11:13:06;;;;;;;12.25;11.40;;;;;;;;;;5017766;28;20603;-78
2022/01/08 11:15:51;;;;;;;12.45;11.45;;;;;;;;;;5015920;28;20042;-77
2022/01/08 11:18:21;;;;;;;11.45;10.48;;;;;;;;;;4994070;28;20041;-76
2022/01/08 11:20:48;;;;;;;11.52;10.57;;;;;;;;;;5024052;28;20088;-78
2022/01/08 11:23:22;;;;;;;11.18;10.35;;;;;;;;;;5024999;28;20132;-77
2022/01/08 11:25:50;;;;;;;12.32;11.35;;;;;;;;;;5014047;28;20034;-76
2022/01/08 11:28:18;;;;;;;12.10;11.20;;;;;;;;;;5015859;28;20058;-79
2022/01/08 11:30:44;;;;;;;11.23;10.63;;;;;;;;;;5013671;28;20429;-77
2022/01/08 11:33:17;;;;;;;11.82;10.90;;;;;;;;;;5009566;28;20111;-77
2022/01/08 11:35:43;;;;;;;12.35;11.30;;;;;;;;;;5012966;28;20040;-77
2022/01/08 11:38:12;;;;;;;12.20;11.40;;;;;;;;;;4999864;28;20039;-79
2022/01/08 11:40:41;;;;;;;12.77;11.52;;;;;;;;;;5010256;28;20515;-79
2022/01/08 11:43:09;;;;;;;12.80;11.90;;;;;;;;;;5010903;28;20124;-78
2022/01/08 11:45:39;;;;;;;12.80;11.57;;;;;;;;;;5012680;28;20033;-78
2022/01/08 11:48:08;;;;;;;12.55;11.45;;;;;;;;;;5015328;28;20058;-77
2022/01/08 11:50:34;;;;;;;11.73;11.00;;;;;;;;;;5014159;28;20037;-78
2022/01/08 11:53:29;;;;;;;12.57;11.50;;;;;;;;;;5015623;28;20508;-76
2022/01/08 11:55:58;;;;;;;12.40;11.18;;;;;;;;;;5010191;28;20403;-78
2022/01/08 11:58:34;;;;;;;11.68;10.68;;;;;;;;;;5013810;28;20259;-79
2022/01/08 12:01:14;;;;;;;13.13;11.60;;;;;;;;;;5011064;28;20041;-77
2022/01/08 12:03:51;;;;;;;12.45;11.55;;;;;;;;;;5009925;28;20107;-78
2022/01/08 12:06:23;;;;;;;12.10;11.20;;;;;;;;;;5016062;28;20037;-79
2022/01/08 12:09:07;;;;;;;18.30;15.60;;;;;;;;;;5011618;28;20046;-79
2022/01/08 12:11:50;;;;;;;12.25;11.10;;;;;;;;;;4977130;28;20085;-79
2022/01/08 12:14:18;;;;;;;12.82;11.63;;;;;;;;;;5014865;28;20100;-77
2022/01/08 12:16:45;;;;;;;12.55;11.52;;;;;;;;;;5012022;28;20050;-78
2022/01/08 12:19:33;;;;;;;11.60;10.60;;;;;;;;;;5008469;28;20482;-76
2022/01/08 12:22:26;;;;;;;12.27;11.20;;;;;;;;;;4991760;28;20706;-79
2022/01/08 12:24:55;;;;;;;11.93;11.13;;;;;;;;;;5003553;28;20049;-78
2022/01/08 12:27:46;;;;;;;13.60;12.38;;;;;;;;;;5017764;28;20057;-77
2022/01/08 12:30:17;;;;;;;11.80;11.00;;;;;;;;;;5010038;28;20040;-78
2022/01/08 12:32:50;;;;;;;12.50;11.45;;;;;;;;;;4997207;28;20052;-77
2022/01/08 12:35:17;;;;;;;11.95;10.95;;;;;;;;;;4989938;28;20069;-78
2022/01/08 12:37:46;;;;;;;13.07;11.95;;;;;;;;;;5010605;28;20049;-78
2022/01/08 12:40:31;;;;;;;11.65;10.95;;;;;;;;;;5012563;28;20033;-79
2022/01/08 12:42:57;;;;;;;12.00;11.20;;;;;;;;;;5007777;28;20042;-79
2022/01/08 12:45:29;;;;;;;11.73;10.90;;;;;;;;;;5011719;28;20766;-79
2022/01/08 12:48:04;;;;;;;12.15;11.15;;;;;;;;;;4993470;28;20408;-78
2022/01/08 12:50:32;;;;;;;11.60;10.90;;;;;;;;;;5014171;28;20026;-79
2022/01/08 12:53:07;;;;;;;11.65;10.85;;;;;;;;;;5013258;28;20060;-79
2022/01/08 12:55:42;;;;;;;12.25;11.35;;;;;;;;;;4993466;28;20073;-80
2022/01/08 12:58:19;;;;;;;11.38;10.68;;;;;;;;;;5010310;28;20041;-79
2022/01/08 13:00:59;;;;;;;11.57;10.73;;;;;;;;;;5009370;28;20046;-77
2022/01/08 13:03:39;;;;;;;11.52;10.73;;;;;;;;;;5003945;28;20095;-78
2022/01/08 13:06:19;;;;;;;11.77;10.98;;;;;;;;;;5008922;28;20500;-79
2022/01/08 13:08:47;;;;;;;11.57;10.85;;;;;;;;;;5011347;28;20037;-78
2022/01/08 13:11:15;;;;;;;12.52;11.63;;;;;;;;;;5012261;28;20065;-79
2022/01/08 13:13:46;;;;;;;12.32;11.30;;;;;;;;;;5012639;28;20033;-78
2022/01/08 13:16:28;;;;;;;12.35;11.25;;;;;;;;;;5012366;28;20040;-77
2022/01/08 13:18:57;;;;;;;11.80;11.00;;;;;;;;;;5012580;28;20055;-77
2022/01/08 13:21:41;;;;;;;12.20;11.20;;;;;;;;;;4993487;28;20048;-77
2022/01/08 13:24:17;;;;;;;12.35;11.40;;;;;;;;;;5009163;28;20066;-78
2022/01/08 13:26:47;;;;;;;12.43;11.43;;;;;;;;;;5013738;28;20096;-77
2022/01/08 13:29:28;;;;;;;12.10;10.48;;;;;;;;;;5012337;28;20061;-77
2022/01/08 13:32:05;;;;;;;10.93;9.88;;;;;;;;;;4992647;28;20092;-77
2022/01/08 13:34:35;;;;;;;10.50;9.77;;;;;;;;;;4970126;28;20045;-77
2022/01/08 13:37:20;;;;;;;10.98;10.18;;;;;;;;;;5012152;28;20076;-77
2022/01/08 13:39:57;;;;;;;11.77;10.68;;;;;;;;;;5010671;28;20042;-77
2022/01/08 13:42:30;;;;;;;10.95;10.07;;;;;;;;;;5012871;28;20090;-77
2022/01/08 13:44:59;;;;;;;11.05;10.20;;;;;;;;;;4996151;28;20052;-79
2022/01/08 13:47:34;;;;;;;11.10;10.15;;;;;;;;;;5001578;28;20512;-79
2022/01/08 13:50:29;;;;;;;10.73;9.82;;;;;;;;;;4995191;28;20049;-78
2022/01/08 13:53:05;;;;;;;11.27;10.27;;;;;;;;;;5014443;28;20084;-80
2022/01/08 13:55:43;;;;;;;10.55;9.82;;;;;;;;;;5015660;28;20055;-78
2022/01/08 13:58:16;;;;;;;11.15;10.23;;;;;;;;;;4996107;28;20362;-79
2022/01/08 14:00:43;;;;;;;11.13;10.23;;;;;;;;;;5010540;28;20057;-80
2022/01/08 14:03:29;;;;;;;10.88;10.13;;;;;;;;;;5019345;28;20494;-78
2022/01/08 14:06:00;;;;;;;10.82;10.02;;;;;;;;;;5007843;28;20052;-79
2022/01/08 14:08:26;;;;;;;10.43;9.73;;;;;;;;;;5010758;28;20037;-79
2022/01/08 14:10:55;;;;;;;11.07;10.38;;;;;;;;;;5011897;28;20053;-79
2022/01/08 14:13:23;;;;;;;11.80;10.70;;;;;;;;;;5008178;28;20045;-78
2022/01/08 14:16:00;;;;;;;12.27;11.20;;;;;;;;;;5012677;28;20452;-79
2022/01/08 14:18:28;;;;;;;11.82;10.82;;;;;;;;;;5007837;28;20484;-78
2022/01/08 14:20:57;;;;;;;11.85;10.77;;;;;;;;;;4998291;28;20038;-77
2022/01/08 14:23:28;;;;;;;11.07;10.25;;;;;;;;;;5015322;28;20270;-77
2022/01/08 14:25:54;;;;;;;11.88;10.73;;;;;;;;;;4996765;28;20037;-77
2022/01/08 14:28:28;;;;;;;11.98;10.98;;;;;;;;;;5012610;28;20034;-77
2022/01/08 14:31:15;;;;;;;11.50;10.70;;;;;;;;;;4994451;28;20046;-79
2022/01/08 14:34:00;;;;;;;12.48;11.35;;;;;;;;;;5015216;28;20354;-77
2022/01/08 14:36:38;;;;;;;12.77;11.65;;;;;;;;;;5009683;28;20037;-77
2022/01/08 14:39:03;;;;;;;12.73;11.55;;;;;;;;;;5013673;28;20029;-76
2022/01/08 14:41:37;;;;;;;13.07;11.68;;;;;;;;;;4997394;28;20089;-79
2022/01/08 14:44:04;;;;;;;12.13;11.23;;;;;;;;;;5014621;28;20586;-78
2022/01/08 14:46:30;;;;;;;13.10;12.10;;;;;;;;;;5014109;28;20087;-78
2022/01/08 14:48:57;;;;;;;12.20;11.30;;;;;;;;;;5014984;28;20116;-78
2022/01/08 14:51:29;;;;;;;10.85;10.13;;;;;;;;;;5010105;28;20034;-78
2022/01/08 14:53:58;;;;;;;10.52;9.85;;;;;;;;;;5011263;28;20038;-78
2022/01/08 14:56:23;;;;;;;12.50;11.20;;;;;;;;;;5011376;28;20038;-78